Time;durP1;ratioP1;P1;durP2;ratioP2;P2;SDS_P1;SDS_P2;PMS_P1;PMS_P2;Temp;Humidity;BMP_temperature;BMP_pressure;BME280_temperature;BME280_humidity;BME280_pressure;Samples;Min_cycle;Max_cycle;Signal;HPM_P1;HPM_P2
2022/08/19 00:01:04;;;;;;;;;;;;;;;;;;5034018;28;19916;-40
2022/08/19 00:03:29;;;;;;;;;;;;;;;;;;5033691;28;19947;-41
2022/08/19 00:05:55;;;;;;;;;;;;;;;;;;5033727;28;19909;-41
2022/08/19 00:08:20;;;;;;;;;;;;;;;;;;5033631;28;20490;-41
2022/08/19 00:10:47;;;;;;;;;;;;;;;;;;5032538;28;20386;-41
2022/08/19 00:13:13;;;;;;;;;;;;;;;;;;5033777;28;19949;-41
2022/08/19 00:15:38;;;;;;;;;;;;;;;;;;5033549;28;20398;-41
2022/08/19 00:18:04;;;;;;;;;;;;;;;;;;5015585;28;19920;-41
2022/08/19 00:20:29;;;;;;;;;;;;;;;;;;5015634;28;19916;-41
2022/08/19 00:22:55;;;;;;;;;;;;;;;;;;5033141;28;20307;-41
2022/08/19 00:25:20;;;;;;;;;;;;;;;;;;5015523;28;19909;-41
2022/08/19 00:27:46;;;;;;;;;;;;;;;;;;5033218;28;19928;-41
2022/08/19 00:30:11;;;;;;;;;;;;;;;;;;5033310;28;20439;-41
2022/08/19 00:32:37;;;;;;;;;;;;;;;;;;5033289;28;19935;-41
2022/08/19 00:35:02;;;;;;;;;;;;;;;;;;5033159;28;20298;-41
2022/08/19 00:37:28;;;;;;;;;;;;;;;;;;5032942;28;19917;-41
2022/08/19 00:39:53;;;;;;;;;;;;;;;;;;5032838;28;19913;-41
2022/08/19 00:42:18;;;;;;;;;;;;;;;;;;5033123;28;19921;-41
2022/08/19 00:44:43;;;;;;;;;;;;;;;;;;5032634;28;19921;-40
2022/08/19 00:47:09;;;;;;;;;;;;;;;;;;5032816;28;19925;-41
2022/08/19 00:49:34;;;;;;;;;;;;;;;;;;5032837;28;19913;-40
2022/08/19 00:51:59;;;;;;;;;;;;;;;;;;5032625;28;20387;-40
2022/08/19 00:54:24;;;;;;;;;;;;;;;;;;5032644;28;19960;-41
2022/08/19 00:56:50;;;;;;;;;;;;;;;;;;5032875;28;19963;-41
2022/08/19 00:59:15;;;;;;;;;;;;;;;;;;5032474;28;19971;-41
2022/08/19 01:01:40;;;;;;;;;;;;;;;;;;5032720;28;20007;-40
2022/08/19 01:04:06;;;;;;;;;;;;;;;;;;5032473;28;20314;-41
2022/08/19 01:06:32;;;;;;;;;;;;;;;;;;5032395;28;19921;-41
2022/08/19 01:08:57;;;;;;;;;;;;;;;;;;5032536;28;19913;-41
2022/08/19 01:11:22;;;;;;;;;;;;;;;;;;5032487;28;20339;-41
2022/08/19 01:13:48;;;;;;;;;;;;;;;;;;5032159;28;19910;-41
2022/08/19 01:16:13;;;;;;;;;;;;;;;;;;5032341;28;20004;-41
2022/08/19 01:18:38;;;;;;;;;;;;;;;;;;5032142;28;19909;-40
2022/08/19 01:21:04;;;;;;;;;;;;;;;;;;5032261;28;19913;-41
2022/08/19 01:23:42;;;;;;;;;;;;;;;;;;5014892;28;20012;-41
2022/08/19 01:26:07;;;;;;;;;;;;;;;;;;5032329;28;20252;-41
2022/08/19 01:28:32;;;;;;;;;;;;;;;;;;5032057;28;19913;-40
2022/08/19 01:30:58;;;;;;;;;;;;;;;;;;5032008;28;19920;-41
2022/08/19 01:33:23;;;;;;;;;;;;;;;;;;5032073;28;19916;-41
2022/08/19 01:35:52;;;;;;;;;;;;;;;;;;5031907;28;19913;-40
2022/08/19 01:38:17;;;;;;;;;;;;;;;;;;5032139;28;19910;-41
2022/08/19 01:40:42;;;;;;;;;;;;;;;;;;5031941;28;20377;-41
2022/08/19 01:43:08;;;;;;;;;;;;;;;;;;5032116;28;19909;-41
2022/08/19 01:45:33;;;;;;;;;;;;;;;;;;5031760;28;20878;-41
2022/08/19 01:47:58;;;;;;;;;;;;;;;;;;5031731;28;20376;-41
2022/08/19 01:50:24;;;;;;;;;;;;;;;;;;5031774;28;19913;-40
2022/08/19 01:52:49;;;;;;;;;;;;;;;;;;5032061;28;20379;-40
2022/08/19 01:55:14;;;;;;;;;;;;;;;;;;5031886;28;19913;-41
2022/08/19 01:57:39;;;;;;;;;;;;;;;;;;5013818;28;20401;-41
2022/08/19 02:00:05;;;;;;;;;;;;;;;;;;5031619;28;19924;-41
2022/08/19 02:02:36;;;;;;;;;;;;;;;;;;5031719;28;19909;-41
2022/08/19 02:05:01;;;;;;;;;;;;;;;;;;5014025;28;19920;-40
2022/08/19 02:07:28;;;;;;;;;;;;;;;;;;5031889;28;19921;-40
2022/08/19 02:09:54;;;;;;;;;;;;;;;;;;5031409;28;19921;-41
2022/08/19 02:12:20;;;;;;;;;;;;;;;;;;5031642;28;20370;-40
2022/08/19 02:14:45;;;;;;;;;;;;;;;;;;5031453;28;20012;-42
2022/08/19 02:17:11;;;;;;;;;;;;;;;;;;5031530;28;20080;-41
2022/08/19 02:19:36;;;;;;;;;;;;;;;;;;5031561;28;19919;-41
2022/08/19 02:22:01;;;;;;;;;;;;;;;;;;5031392;28;19913;-41
2022/08/19 02:24:26;;;;;;;;;;;;;;;;;;5031740;28;19913;-41
2022/08/19 02:26:52;;;;;;;;;;;;;;;;;;5031252;28;20272;-40
2022/08/19 02:29:17;;;;;;;;;;;;;;;;;;5031663;28;19944;-41
2022/08/19 02:31:43;;;;;;;;;;;;;;;;;;5013624;28;19959;-40
2022/08/19 02:34:08;;;;;;;;;;;;;;;;;;5016326;28;20019;-40
2022/08/19 02:36:33;;;;;;;;;;;;;;;;;;5035577;28;19935;-40
2022/08/19 02:38:58;;;;;;;;;;;;;;;;;;5035147;28;19967;-40
2022/08/19 02:41:24;;;;;;;;;;;;;;;;;;5035384;28;19909;-41
2022/08/19 02:43:49;;;;;;;;;;;;;;;;;;5035158;28;19917;-41
2022/08/19 02:46:14;;;;;;;;;;;;;;;;;;5034899;28;20288;-40
2022/08/19 02:48:39;;;;;;;;;;;;;;;;;;5035157;28;19943;-41
2022/08/19 02:51:05;;;;;;;;;;;;;;;;;;5035129;28;19910;-41
2022/08/19 02:53:30;;;;;;;;;;;;;;;;;;5017339;28;19979;-41
2022/08/19 02:55:55;;;;;;;;;;;;;;;;;;5034983;28;19913;-41
2022/08/19 02:58:21;;;;;;;;;;;;;;;;;;5034819;28;19913;-41
2022/08/19 03:00:46;;;;;;;;;;;;;;;;;;5034682;28;19909;-40
2022/08/19 03:03:11;;;;;;;;;;;;;;;;;;5035046;28;20323;-41
2022/08/19 03:05:37;;;;;;;;;;;;;;;;;;5034725;28;20355;-41
2022/08/19 03:08:03;;;;;;;;;;;;;;;;;;5034515;28;19925;-41
2022/08/19 03:10:28;;;;;;;;;;;;;;;;;;5034663;28;19913;-41
2022/08/19 03:12:53;;;;;;;;;;;;;;;;;;5034548;28;19959;-41
2022/08/19 03:15:19;;;;;;;;;;;;;;;;;;5034823;28;19913;-41
2022/08/19 03:17:44;;;;;;;;;;;;;;;;;;5034485;28;19924;-41
2022/08/19 03:20:09;;;;;;;;;;;;;;;;;;5034426;28;19913;-41
2022/08/19 03:22:35;;;;;;;;;;;;;;;;;;5034364;28;19995;-41
2022/08/19 03:25:00;;;;;;;;;;;;;;;;;;5034272;28;19917;-41
2022/08/19 03:27:25;;;;;;;;;;;;;;;;;;5034308;28;19921;-41
2022/08/19 03:29:51;;;;;;;;;;;;;;;;;;5034435;28;19909;-41
2022/08/19 03:32:16;;;;;;;;;;;;;;;;;;5034487;28;19935;-40
2022/08/19 03:34:41;;;;;;;;;;;;;;;;;;5034199;28;20319;-41
2022/08/19 03:37:07;;;;;;;;;;;;;;;;;;5034152;28;20356;-42
2022/08/19 03:39:32;;;;;;;;;;;;;;;;;;5034206;28;19931;-40
2022/08/19 03:42:02;;;;;;;;;;;;;;;;;;5016363;28;20291;-40
2022/08/19 03:44:27;;;;;;;;;;;;;;;;;;5033048;28;19920;-41
2022/08/19 03:46:53;;;;;;;;;;;;;;;;;;5033418;28;19925;-41
2022/08/19 03:49:18;;;;;;;;;;;;;;;;;;5033907;28;20337;-41
2022/08/19 03:51:44;;;;;;;;;;;;;;;;;;5033951;28;19953;-41
2022/08/19 03:54:09;;;;;;;;;;;;;;;;;;5034174;28;19956;-40
2022/08/19 03:56:34;;;;;;;;;;;;;;;;;;5033705;28;19913;-41
2022/08/19 03:59:00;;;;;;;;;;;;;;;;;;5033718;28;20086;-41
2022/08/19 04:01:26;;;;;;;;;;;;;;;;;;5033737;28;19952;-41
2022/08/19 04:03:52;;;;;;;;;;;;;;;;;;5033770;28;19909;-41
2022/08/19 04:06:17;;;;;;;;;;;;;;;;;;5033523;28;19921;-41
2022/08/19 04:08:43;;;;;;;;;;;;;;;;;;5033381;28;19924;-40
2022/08/19 04:11:08;;;;;;;;;;;;;;;;;;5033531;28;19913;-41
2022/08/19 04:13:33;;;;;;;;;;;;;;;;;;5033783;28;19923;-41
2022/08/19 04:15:59;;;;;;;;;;;;;;;;;;5033253;28;20374;-41
2022/08/19 04:18:25;;;;;;;;;;;;;;;;;;5015636;28;19909;-41
2022/08/19 04:20:50;;;;;;;;;;;;;;;;;;5033556;28;19952;-41
2022/08/19 04:23:15;;;;;;;;;;;;;;;;;;5033330;28;20444;-41
2022/08/19 04:25:41;;;;;;;;;;;;;;;;;;5033157;28;19913;-41
2022/08/19 04:28:06;;;;;;;;;;;;;;;;;;5033034;28;19917;-41
2022/08/19 04:30:31;;;;;;;;;;;;;;;;;;5015528;28;19966;-41
2022/08/19 04:32:56;;;;;;;;;;;;;;;;;;5033249;28;19913;-40
2022/08/19 04:35:22;;;;;;;;;;;;;;;;;;5033029;28;19925;-41
2022/08/19 04:37:47;;;;;;;;;;;;;;;;;;5032904;28;19909;-41
2022/08/19 04:42:56;;;;;;;;;;;;;;;;;;5032891;28;19924;-41
2022/08/19 04:45:21;;;;;;;;;;;;;;;;;;5032728;28;19921;-41
2022/08/19 04:47:47;;;;;;;;;;;;;;;;;;5015034;28;19948;-41
2022/08/19 04:50:12;;;;;;;;;;;;;;;;;;5032803;28;19916;-41
2022/08/19 04:52:42;;;;;;;;;;;;;;;;;;5032651;28;19963;-40
2022/08/19 04:55:07;;;;;;;;;;;;;;;;;;5032707;28;19967;-40
2022/08/19 04:57:33;;;;;;;;;;;;;;;;;;5032492;28;19948;-40
2022/08/19 04:59:58;;;;;;;;;;;;;;;;;;5032571;28;19909;-40
2022/08/19 05:02:24;;;;;;;;;;;;;;;;;;5032828;28;19913;-41
2022/08/19 05:04:50;;;;;;;;;;;;;;;;;;5032453;28;20364;-40
2022/08/19 05:07:15;;;;;;;;;;;;;;;;;;5032316;28;19928;-40
2022/08/19 05:09:40;;;;;;;;;;;;;;;;;;5032382;28;19959;-41
2022/08/19 05:12:06;;;;;;;;;;;;;;;;;;5032656;28;20003;-40
2022/08/19 05:14:31;;;;;;;;;;;;;;;;;;5032385;28;20004;-41
2022/08/19 05:16:56;;;;;;;;;;;;;;;;;;5032097;28;19918;-41
2022/08/19 05:24:49;;;;;;;;;;;;;;;;;;5032116;28;19952;-41
2022/08/19 05:27:14;;;;;;;;;;;;;;;;;;5032040;28;19967;-40
2022/08/19 05:29:40;;;;;;;;;;;;;;;;;;5032079;28;19917;-41
2022/08/19 05:32:08;;;;;;;;;;;;;;;;;;5031772;28;20000;-41
2022/08/19 05:34:33;;;;;;;;;;;;;;;;;;5032086;28;19917;-40
2022/08/19 05:36:58;;;;;;;;;;;;;;;;;;5032106;28;19909;-40
2022/08/19 05:39:24;;;;;;;;;;;;;;;;;;5031804;28;19920;-40
2022/08/19 05:41:49;;;;;;;;;;;;;;;;;;5031935;28;19909;-41
2022/08/19 05:44:15;;;;;;;;;;;;;;;;;;5031792;28;20315;-41
2022/08/19 05:46:40;;;;;;;;;;;;;;;;;;5031757;28;19943;-42
2022/08/19 05:49:06;;;;;;;;;;;;;;;;;;5031743;28;19913;-41
2022/08/19 05:51:32;;;;;;;;;;;;;;;;;;5031735;28;19910;-41
2022/08/19 05:53:57;;;;;;;;;;;;;;;;;;5031763;28;19913;-41
2022/08/19 05:56:23;;;;;;;;;;;;;;;;;;5014022;28;20432;-41
2022/08/19 05:58:49;;;;;;;;;;;;;;;;;;5031367;28;20326;-41
2022/08/19 06:01:15;;;;;;;;;;;;;;;;;;5031562;28;20636;-42
2022/08/19 06:03:40;;;;;;;;;;;;;;;;;;5013932;28;19924;-41
2022/08/19 06:06:07;;;;;;;;;;;;;;;;;;5031535;28;19967;-41
2022/08/19 06:08:33;;;;;;;;;;;;;;;;;;5033056;28;19924;-41
2022/08/19 06:10:58;;;;;;;;;;;;;;;;;;5036049;28;19913;-42
2022/08/19 06:13:25;;;;;;;;;;;;;;;;;;5035701;28;20390;-41
2022/08/19 06:15:50;;;;;;;;;;;;;;;;;;5035191;28;19916;-41
2022/08/19 06:18:16;;;;;;;;;;;;;;;;;;5017812;28;19918;-41
2022/08/19 06:20:42;;;;;;;;;;;;;;;;;;5035582;28;19909;-41
2022/08/19 06:23:10;;;;;;;;;;;;;;;;;;5035836;28;19913;-41
2022/08/19 06:25:35;;;;;;;;;;;;;;;;;;5035551;28;20378;-42
2022/08/19 06:28:01;;;;;;;;;;;;;;;;;;5035212;28;20339;-41
2022/08/19 06:30:27;;;;;;;;;;;;;;;;;;5017752;28;19924;-42
2022/08/19 06:32:52;;;;;;;;;;;;;;;;;;5035560;28;19948;-41
2022/08/19 06:35:18;;;;;;;;;;;;;;;;;;5035227;28;20275;-41
2022/08/19 06:37:44;;;;;;;;;;;;;;;;;;5035233;28;20303;-41
2022/08/19 06:40:10;;;;;;;;;;;;;;;;;;5035174;28;19909;-41
2022/08/19 06:42:38;;;;;;;;;;;;;;;;;;5035185;28;19917;-42
2022/08/19 06:45:03;;;;;;;;;;;;;;;;;;5034895;28;19927;-42
2022/08/19 06:47:29;;;;;;;;;;;;;;;;;;5035000;28;19921;-42
2022/08/19 06:49:58;;;;;;;;;;;;;;;;;;5017219;28;19909;-42
2022/08/19 06:52:24;;;;;;;;;;;;;;;;;;5017441;28;19921;-42
2022/08/19 06:54:49;;;;;;;;;;;;;;;;;;5034941;28;19913;-42
2022/08/19 06:57:15;;;;;;;;;;;;;;;;;;5000927;28;19919;-42
2022/08/19 06:59:41;;;;;;;;;;;;;;;;;;5035148;28;19956;-41
2022/08/19 07:02:06;;;;;;;;;;;;;;;;;;5034765;28;20391;-41
2022/08/19 07:04:32;;;;;;;;;;;;;;;;;;5017120;28;19913;-42
2022/08/19 07:06:57;;;;;;;;;;;;;;;;;;5034865;28;20577;-42
2022/08/19 07:09:22;;;;;;;;;;;;;;;;;;5034668;28;20358;-42
2022/08/19 07:11:48;;;;;;;;;;;;;;;;;;5034512;28;19913;-41
2022/08/19 07:14:17;;;;;;;;;;;;;;;;;;5034912;28;20464;-42
2022/08/19 07:16:42;;;;;;;;;;;;;;;;;;5034762;28;19935;-41
2022/08/19 07:19:08;;;;;;;;;;;;;;;;;;5034319;28;20371;-42
2022/08/19 07:21:33;;;;;;;;;;;;;;;;;;5034566;28;19917;-42
2022/08/19 07:23:58;;;;;;;;;;;;;;;;;;5016479;28;19959;-41
2022/08/19 07:26:24;;;;;;;;;;;;;;;;;;5034420;28;19939;-42
2022/08/19 07:28:49;;;;;;;;;;;;;;;;;;5034240;28;19996;-42
2022/08/19 07:31:14;;;;;;;;;;;;;;;;;;5034457;28;19913;-42
2022/08/19 07:33:40;;;;;;;;;;;;;;;;;;5034489;28;19933;-42
2022/08/19 07:36:06;;;;;;;;;;;;;;;;;;5034094;28;19913;-42
2022/08/19 07:38:31;;;;;;;;;;;;;;;;;;5016563;28;20383;-41
2022/08/19 07:40:56;;;;;;;;;;;;;;;;;;5034089;28;19913;-42
2022/08/19 07:43:24;;;;;;;;;;;;;;;;;;5034068;28;19917;-42
2022/08/19 07:45:50;;;;;;;;;;;;;;;;;;5033754;28;19949;-42
2022/08/19 07:48:15;;;;;;;;;;;;;;;;;;5033942;28;19976;-41
2022/08/19 07:50:41;;;;;;;;;;;;;;;;;;5033980;28;19914;-41
2022/08/19 07:53:06;;;;;;;;;;;;;;;;;;5015985;28;19910;-42
2022/08/19 07:55:31;;;;;;;;;;;;;;;;;;5033824;28;19913;-42
2022/08/19 07:57:56;;;;;;;;;;;;;;;;;;5034038;28;19913;-41
2022/08/19 08:00:22;;;;;;;;;;;;;;;;;;5015918;28;20430;-42
2022/08/19 08:02:47;;;;;;;;;;;;;;;;;;5033643;28;19920;-42
2022/08/19 08:10:41;;;;;;;;;;;;;;;;;;5033614;28;20354;-42
2022/08/19 08:13:06;;;;;;;;;;;;;;;;;;5033442;28;19988;-41
2022/08/19 08:15:31;;;;;;;;;;;;;;;;;;5033498;28;19917;-42
2022/08/19 08:17:57;;;;;;;;;;;;;;;;;;5033340;28;19913;-42
2022/08/19 08:20:23;;;;;;;;;;;;;;;;;;5033463;28;20319;-42
2022/08/19 08:25:32;;;;;;;;;;;;;;;;;;5033378;28;19914;-43
2022/08/19 08:27:59;;;;;;;;;;;;;;;;;;5033210;28;19928;-41
2022/08/19 08:30:25;;;;;;;;;;;;;;;;;;5032927;28;19913;-42
2022/08/19 08:32:51;;;;;;;;;;;;;;;;;;5033057;28;19909;-41
2022/08/19 08:35:16;;;;;;;;;;;;;;;;;;5033062;28;19945;-42
2022/08/19 08:37:43;;;;;;;;;;;;;;;;;;5033087;28;19961;-42
2022/08/19 08:40:08;;;;;;;;;;;;;;;;;;5032927;28;19913;-42
2022/08/19 08:42:36;;;;;;;;;;;;;;;;;;5032873;28;19909;-42
2022/08/19 08:45:01;;;;;;;;;;;;;;;;;;5032682;28;19921;-41
2022/08/19 08:47:27;;;;;;;;;;;;;;;;;;5032834;28;19917;-42
2022/08/19 08:49:52;;;;;;;;;;;;;;;;;;5032766;28;19920;-41
2022/08/19 08:52:18;;;;;;;;;;;;;;;;;;5032740;28;19910;-41
2022/08/19 08:54:43;;;;;;;;;;;;;;;;;;5033019;28;19924;-41
2022/08/19 08:57:09;;;;;;;;;;;;;;;;;;5032605;28;19909;-42
2022/08/19 08:59:35;;;;;;;;;;;;;;;;;;5032861;28;19943;-42
2022/08/19 09:02:00;;;;;;;;;;;;;;;;;;5032668;28;19909;-42
2022/08/19 09:04:25;;;;;;;;;;;;;;;;;;5032782;28;19913;-42
2022/08/19 09:06:51;;;;;;;;;;;;;;;;;;5014576;28;19921;-42
2022/08/19 09:09:17;;;;;;;;;;;;;;;;;;5014642;28;20355;-41
2022/08/19 09:11:42;;;;;;;;;;;;;;;;;;5032248;28;19932;-41
2022/08/19 09:14:08;;;;;;;;;;;;;;;;;;5032274;28;19913;-42
2022/08/19 09:16:33;;;;;;;;;;;;;;;;;;5032554;28;19968;-42
2022/08/19 09:18:59;;;;;;;;;;;;;;;;;;5032338;28;20011;-42
2022/08/19 09:21:25;;;;;;;;;;;;;;;;;;5032323;28;19941;-41
2022/08/19 09:23:50;;;;;;;;;;;;;;;;;;5032036;28;19920;-41
2022/08/19 09:26:16;;;;;;;;;;;;;;;;;;5032013;28;20000;-41
2022/08/19 09:28:44;;;;;;;;;;;;;;;;;;5032176;28;19913;-41
2022/08/19 09:31:12;;;;;;;;;;;;;;;;;;5032038;28;20015;-41
2022/08/19 09:33:37;;;;;;;;;;;;;;;;;;5032127;28;19936;-41
2022/08/19 09:36:03;;;;;;;;;;;;;;;;;;5031963;28;19913;-42
2022/08/19 09:38:28;;;;;;;;;;;;;;;;;;5031949;28;19961;-42
2022/08/19 09:40:53;;;;;;;;;;;;;;;;;;5031907;28;20374;-41
2022/08/19 09:43:19;;;;;;;;;;;;;;;;;;5031832;28;19917;-42
2022/08/19 09:45:44;;;;;;;;;;;;;;;;;;5031726;28;19921;-42
2022/08/19 09:48:09;;;;;;;;;;;;;;;;;;5031602;28;19959;-42
2022/08/19 09:50:38;;;;;;;;;;;;;;;;;;5031863;28;19909;-42
2022/08/19 09:53:03;;;;;;;;;;;;;;;;;;5031717;28;19920;-41
2022/08/19 09:55:28;;;;;;;;;;;;;;;;;;5031811;28;19909;-41
2022/08/19 09:57:54;;;;;;;;;;;;;;;;;;5031927;28;19913;-41
2022/08/19 10:00:20;;;;;;;;;;;;;;;;;;5031741;28;20363;-42
2022/08/19 10:02:45;;;;;;;;;;;;;;;;;;5031866;28;19913;-41
2022/08/19 10:07:55;;;;;;;;;;;;;;;;;;5031422;28;20298;-41
2022/08/19 10:10:20;;;;;;;;;;;;;;;;;;5031857;28;20012;-41
2022/08/19 10:12:47;;;;;;;;;;;;;;;;;;5031501;28;20426;-42
2022/08/19 10:15:12;;;;;;;;;;;;;;;;;;5031806;28;19909;-42
2022/08/19 10:17:38;;;;;;;;;;;;;;;;;;5031838;28;20235;-41
2022/08/19 10:20:04;;;;;;;;;;;;;;;;;;5013921;28;19923;-41
2022/08/19 10:22:29;;;;;;;;;;;;;;;;;;5031810;28;19917;-42
2022/08/19 10:24:54;;;;;;;;;;;;;;;;;;5031412;28;20584;-41
2022/08/19 10:27:20;;;;;;;;;;;;;;;;;;5031451;28;19921;-42
2022/08/19 10:29:45;;;;;;;;;;;;;;;;;;5031425;28;19981;-41
2022/08/19 10:32:10;;;;;;;;;;;;;;;;;;5031714;28;19913;-41
2022/08/19 10:34:36;;;;;;;;;;;;;;;;;;5031431;28;19909;-42
2022/08/19 10:37:01;;;;;;;;;;;;;;;;;;5031268;28;19913;-42
2022/08/19 10:39:30;;;;;;;;;;;;;;;;;;5031306;28;19917;-41
2022/08/19 10:41:56;;;;;;;;;;;;;;;;;;5031624;28;19913;-41
2022/08/19 10:44:22;;;;;;;;;;;;;;;;;;5031217;28;19909;-42
2022/08/19 10:46:48;;;;;;;;;;;;;;;;;;5031001;28;19925;-41
2022/08/19 10:49:14;;;;;;;;;;;;;;;;;;5031291;28;19924;-41
2022/08/19 10:56:50;;;;;;;;;;;;;;;;;;5032327;28;19913;-42
2022/08/19 10:57:10;;;;;;;;;;;;;;;;;;5034809;28;19917;-42
2022/08/19 10:59:36;;;;;;;;;;;;;;;;;;5035129;28;19916;-42
2022/08/19 11:02:01;;;;;;;;;;;;;;;;;;5034835;28;20419;-42
2022/08/19 11:04:27;;;;;;;;;;;;;;;;;;5034749;28;19920;-41
2022/08/19 11:06:52;;;;;;;;;;;;;;;;;;5034775;28;19924;-41
2022/08/19 11:09:17;;;;;;;;;;;;;;;;;;5034747;28;19913;-42
2022/08/19 11:11:43;;;;;;;;;;;;;;;;;;5017005;28;19976;-41
2022/08/19 11:14:09;;;;;;;;;;;;;;;;;;5016799;28;19959;-41
2022/08/19 11:16:34;;;;;;;;;;;;;;;;;;5034635;28;19964;-41
2022/08/19 11:19:00;;;;;;;;;;;;;;;;;;5016756;28;19975;-41
2022/08/19 11:21:26;;;;;;;;;;;;;;;;;;5034328;28;19924;-41
2022/08/19 11:23:51;;;;;;;;;;;;;;;;;;5034437;28;19909;-42
2022/08/19 11:26:17;;;;;;;;;;;;;;;;;;5034256;28;19944;-42
2022/08/19 11:28:42;;;;;;;;;;;;;;;;;;5034267;28;20000;-42
2022/08/19 11:33:42;;;;;;;;;;;;;;;;;;5055644;28;19958;-42
2022/08/19 11:36:08;;;;;;;;;;;;;;;;;;5073400;28;19988;-41
2022/08/19 11:38:34;;;;;;;;;;;;;;;;;;5073035;28;19962;-41
2022/08/19 11:40:59;;;;;;;;;;;;;;;;;;5074170;28;19955;-42
2022/08/19 11:43:26;;;;;;;;;;;;;;;;;;5074206;28;19966;-42
2022/08/19 11:45:51;;;;;;;;;;;;;;;;;;5074343;28;19927;-42
2022/08/19 11:48:17;;;;;;;;;;;;;;;;;;5074363;28;19920;-42
2022/08/19 11:50:43;;;;;;;;;;;;;;;;;;5074153;28;20293;-42
2022/08/19 11:53:09;;;;;;;;;;;;;;;;;;5074087;28;19986;-42
2022/08/19 11:55:35;;;;;;;;;;;;;;;;;;5074290;28;19952;-42
2022/08/19 11:58:01;;;;;;;;;;;;;;;;;;5073988;28;20325;-42
2022/08/19 12:00:26;;;;;;;;;;;;;;;;;;5074185;28;19912;-43
2022/08/19 12:02:51;;;;;;;;;;;;;;;;;;5073726;28;20376;-42
2022/08/19 12:05:17;;;;;;;;;;;;;;;;;;5073291;28;19966;-42
2022/08/19 12:07:43;;;;;;;;;;;;;;;;;;5073171;28;19999;-42
2022/08/19 12:10:08;;;;;;;;;;;;;;;;;;5073921;28;20461;-42
2022/08/19 12:12:34;;;;;;;;;;;;;;;;;;5072451;28;20397;-42
2022/08/19 12:14:59;;;;;;;;;;;;;;;;;;5073670;28;20305;-42
2022/08/19 12:17:25;;;;;;;;;;;;;;;;;;5073543;28;20361;-42
2022/08/19 12:19:50;;;;;;;;;;;;;;;;;;5073427;28;19912;-42
2022/08/19 12:22:19;;;;;;;;;;;;;;;;;;5073447;28;19913;-42
2022/08/19 12:24:45;;;;;;;;;;;;;;;;;;5073410;28;19916;-42
2022/08/19 12:27:10;;;;;;;;;;;;;;;;;;5073556;28;19917;-42
2022/08/19 12:29:36;;;;;;;;;;;;;;;;;;5073223;28;20380;-42
2022/08/19 12:32:03;;;;;;;;;;;;;;;;;;5071462;28;20357;-42
2022/08/19 12:34:32;;;;;;;;;;;;;;;;;;5071896;28;19924;-42
2022/08/19 12:36:57;;;;;;;;;;;;;;;;;;5073021;28;19916;-44
2022/08/19 12:39:23;;;;;;;;;;;;;;;;;;5071929;28;20694;-42
2022/08/19 12:41:48;;;;;;;;;;;;;;;;;;5073262;28;19938;-42
2022/08/19 12:44:14;;;;;;;;;;;;;;;;;;5072852;28;19916;-42
2022/08/19 12:46:39;;;;;;;;;;;;;;;;;;5072870;28;19920;-42
2022/08/19 12:49:04;;;;;;;;;;;;;;;;;;5072762;28;19912;-42
2022/08/19 12:51:31;;;;;;;;;;;;;;;;;;5073156;28;20022;-42
2022/08/19 12:53:56;;;;;;;;;;;;;;;;;;5072706;28;19913;-42
2022/08/19 12:56:22;;;;;;;;;;;;;;;;;;5072665;28;19916;-42
2022/08/19 12:58:48;;;;;;;;;;;;;;;;;;5072716;28;19919;-42
2022/08/19 13:01:13;;;;;;;;;;;;;;;;;;5072838;28;19908;-42
2022/08/19 13:03:38;;;;;;;;;;;;;;;;;;5072891;28;19970;-43
2022/08/19 13:06:03;;;;;;;;;;;;;;;;;;5072723;28;20239;-42
2022/08/19 13:08:29;;;;;;;;;;;;;;;;;;5072492;28;19977;-42
2022/08/19 13:10:55;;;;;;;;;;;;;;;;;;5072477;28;19916;-43
2022/08/19 13:13:20;;;;;;;;;;;;;;;;;;5072670;28;19913;-42
2022/08/19 13:15:47;;;;;;;;;;;;;;;;;;5072679;28;19909;-42
2022/08/19 13:18:12;;;;;;;;;;;;;;;;;;5072129;28;19912;-43
2022/08/19 13:20:40;;;;;;;;;;;;;;;;;;5072364;28;20075;-42
2022/08/19 13:23:05;;;;;;;;;;;;;;;;;;5072471;28;20267;-43
2022/08/19 13:25:31;;;;;;;;;;;;;;;;;;5072294;28;19966;-42
2022/08/19 13:27:56;;;;;;;;;;;;;;;;;;5072074;28;19927;-42
2022/08/19 13:33:12;;;;;;;;;;;;;;;;;;5071808;28;19927;-42
2022/08/19 13:35:37;;;;;;;;;;;;;;;;;;5072512;28;20415;-43
2022/08/19 13:38:04;;;;;;;;;;;;;;;;;;5072015;28;19909;-42
2022/08/19 13:40:33;;;;;;;;;;;;;;;;;;5072358;28;20301;-43
2022/08/19 13:42:58;;;;;;;;;;;;;;;;;;5072223;28;20413;-43
2022/08/19 13:45:24;;;;;;;;;;;;;;;;;;5072007;28;20006;-42
2022/08/19 13:47:49;;;;;;;;;;;;;;;;;;5071849;28;19920;-43
2022/08/19 13:50:15;;;;;;;;;;;;;;;;;;5071936;28;20320;-42
2022/08/19 13:52:41;;;;;;;;;;;;;;;;;;5070964;28;19909;-41
2022/08/19 13:55:06;;;;;;;;;;;;;;;;;;5072039;28;19913;-41
2022/08/19 13:57:32;;;;;;;;;;;;;;;;;;5071949;28;20309;-42
2022/08/19 13:59:57;;;;;;;;;;;;;;;;;;5070495;28;19912;-42
2022/08/19 14:02:23;;;;;;;;;;;;;;;;;;5071784;28;20357;-41
2022/08/19 14:04:48;;;;;;;;;;;;;;;;;;5070518;28;19987;-41
2022/08/19 14:07:14;;;;;;;;;;;;;;;;;;5071682;28;19917;-41
2022/08/19 14:09:39;;;;;;;;;;;;;;;;;;5071696;28;19912;-42
2022/08/19 14:12:04;;;;;;;;;;;;;;;;;;5071775;28;19915;-42
2022/08/19 14:14:30;;;;;;;;;;;;;;;;;;5071959;28;19912;-41
2022/08/19 14:16:55;;;;;;;;;;;;;;;;;;5071844;28;19908;-41
2022/08/19 14:19:21;;;;;;;;;;;;;;;;;;5071600;28;20262;-41
2022/08/19 14:21:46;;;;;;;;;;;;;;;;;;5071678;28;19934;-41
2022/08/19 14:24:11;;;;;;;;;;;;;;;;;;5071481;28;19919;-42
2022/08/19 14:26:38;;;;;;;;;;;;;;;;;;5071603;28;19909;-41
2022/08/19 14:29:03;;;;;;;;;;;;;;;;;;5072224;28;19913;-43
2022/08/19 14:31:29;;;;;;;;;;;;;;;;;;5075795;28;19908;-42
2022/08/19 14:33:57;;;;;;;;;;;;;;;;;;5075384;28;20389;-41
2022/08/19 14:36:22;;;;;;;;;;;;;;;;;;5075734;28;19916;-41
2022/08/19 14:38:48;;;;;;;;;;;;;;;;;;5075683;28;19966;-42
2022/08/19 14:41:16;;;;;;;;;;;;;;;;;;5075566;28;19908;-43
2022/08/19 14:43:42;;;;;;;;;;;;;;;;;;5075319;28;19951;-41
2022/08/19 14:46:07;;;;;;;;;;;;;;;;;;5075225;28;19920;-42
2022/08/19 14:48:33;;;;;;;;;;;;;;;;;;5074860;28;19927;-42
2022/08/19 14:50:59;;;;;;;;;;;;;;;;;;5075091;28;20274;-41
2022/08/19 14:53:25;;;;;;;;;;;;;;;;;;5075343;28;20011;-41
2022/08/19 14:55:51;;;;;;;;;;;;;;;;;;5075348;28;20282;-41
2022/08/19 14:58:16;;;;;;;;;;;;;;;;;;5075184;28;19999;-42
2022/08/19 15:00:42;;;;;;;;;;;;;;;;;;5075266;28;19913;-42
2022/08/19 15:03:07;;;;;;;;;;;;;;;;;;5073588;28;19912;-42
2022/08/19 15:05:33;;;;;;;;;;;;;;;;;;5075206;28;19955;-42
2022/08/19 15:07:59;;;;;;;;;;;;;;;;;;5074719;28;20289;-41
2022/08/19 15:10:24;;;;;;;;;;;;;;;;;;5074771;28;19909;-42
2022/08/19 15:12:50;;;;;;;;;;;;;;;;;;5074656;28;19920;-41
2022/08/19 15:15:17;;;;;;;;;;;;;;;;;;5074559;28;19916;-42
2022/08/19 15:17:42;;;;;;;;;;;;;;;;;;5074738;28;19927;-41
2022/08/19 15:20:08;;;;;;;;;;;;;;;;;;5074530;28;19995;-41
2022/08/19 15:22:35;;;;;;;;;;;;;;;;;;5074505;28;19923;-41
2022/08/19 15:25:01;;;;;;;;;;;;;;;;;;5074540;28;20015;-41
2022/08/19 15:27:26;;;;;;;;;;;;;;;;;;5074410;28;20015;-42
2022/08/19 15:29:51;;;;;;;;;;;;;;;;;;5074639;28;20269;-41
2022/08/19 15:32:17;;;;;;;;;;;;;;;;;;5073267;28;20422;-41
2022/08/19 15:34:43;;;;;;;;;;;;;;;;;;5074165;28;19932;-41
2022/08/19 15:37:08;;;;;;;;;;;;;;;;;;5074332;28;19912;-41
2022/08/19 15:39:33;;;;;;;;;;;;;;;;;;5074389;28;20141;-41
2022/08/19 15:41:59;;;;;;;;;;;;;;;;;;5073042;28;19920;-41
2022/08/19 15:44:25;;;;;;;;;;;;;;;;;;5074472;28;20385;-41
2022/08/19 15:46:51;;;;;;;;;;;;;;;;;;5074185;28;19924;-41
2022/08/19 15:49:16;;;;;;;;;;;;;;;;;;5074112;28;19931;-41
2022/08/19 15:51:42;;;;;;;;;;;;;;;;;;5074222;28;19921;-41
2022/08/19 15:54:07;;;;;;;;;;;;;;;;;;5074103;28;19912;-41
2022/08/19 16:07:29;;;;;;;;;;;;;;;;;;5073678;28;20356;-41
2022/08/19 16:09:54;;;;;;;;;;;;;;;;;;5073632;28;19934;-41
2022/08/19 16:12:19;;;;;;;;;;;;;;;;;;5073707;28;19913;-41
2022/08/19 16:14:46;;;;;;;;;;;;;;;;;;5073676;28;20362;-41
2022/08/19 16:17:12;;;;;;;;;;;;;;;;;;5073504;28;19990;-42
2022/08/19 16:19:37;;;;;;;;;;;;;;;;;;5073589;28;20350;-41
2022/08/19 16:22:04;;;;;;;;;;;;;;;;;;5073431;28;19924;-41
2022/08/19 16:24:29;;;;;;;;;;;;;;;;;;5073370;28;20001;-41
2022/08/19 16:26:55;;;;;;;;;;;;;;;;;;5072101;28;19982;-42
2022/08/19 16:29:21;;;;;;;;;;;;;;;;;;5073616;28;19924;-41
2022/08/19 16:31:48;;;;;;;;;;;;;;;;;;5073280;28;19913;-42
2022/08/19 16:34:14;;;;;;;;;;;;;;;;;;5073032;28;19924;-42
2022/08/19 16:36:40;;;;;;;;;;;;;;;;;;5073303;28;20014;-42
2022/08/19 16:39:06;;;;;;;;;;;;;;;;;;5073263;28;19912;-41
2022/08/19 16:41:31;;;;;;;;;;;;;;;;;;5073374;28;19916;-42
2022/08/19 16:43:56;;;;;;;;;;;;;;;;;;5073018;28;19978;-41
2022/08/19 16:46:26;;;;;;;;;;;;;;;;;;5071762;28;19912;-41
2022/08/19 16:48:52;;;;;;;;;;;;;;;;;;5072919;28;20002;-41
2022/08/19 16:51:17;;;;;;;;;;;;;;;;;;5072836;28;20366;-42
2022/08/19 16:53:43;;;;;;;;;;;;;;;;;;5072392;28;19912;-41
2022/08/19 16:56:10;;;;;;;;;;;;;;;;;;5072664;28;20339;-41
2022/08/19 16:58:39;;;;;;;;;;;;;;;;;;5071627;28;19954;-41
2022/08/19 17:01:04;;;;;;;;;;;;;;;;;;5072664;28;19965;-41
2022/08/19 17:03:33;;;;;;;;;;;;;;;;;;5072703;28;19908;-41
2022/08/19 17:06:02;;;;;;;;;;;;;;;;;;5072498;28;19985;-41
2022/08/19 17:08:28;;;;;;;;;;;;;;;;;;5072526;28;19926;-41
2022/08/19 17:10:54;;;;;;;;;;;;;;;;;;5072568;28;19916;-41
2022/08/19 17:13:19;;;;;;;;;;;;;;;;;;5072473;28;19950;-41